CheckWX is a tool to help pilots better visualize weather data.  It is not intended as a substitute for an official pre-flight weather briefing.

07:26:12 UTC

EDHL TAF
Lübeck Blankensee Airport
Lübeck, Germany
TAF EDHL 190500Z 1906/1915 14005KT CAVOK PROB30 TEMPO 1914/1915 23015G35KT TSRA SCT040CB

Jun-19@
06:00 UTC

Jun-19 @ 06:00 UTC

Jun-19@
15:00 UTC

Jun-19 @ 15:00 UTC

TAF EDHL 190500Z 1906/1915 14005KT CAVOK
Wind
  • 140° at 5 KTS
Conditions
No significant weather
Cloud Levels
  • No significant clouds

Jun-19@
14:00 UTC

Jun-19 @ 14:00 UTC

Jun-19@
15:00 UTC

Jun-19 @ 15:00 UTC

PROB30 TEMPO 1914/1915 23015G35KT TSRA SCT040CB

Temporary - 30% Likelihood

Temporary - 30% Likelihood during this time.

Wind
  • 230° at 15 KTS
  • {Gusting to 35 KTS
Conditions
Thunderstorm, Rain
Cloud Levels
  • Scattered at 4,000' AGL